Time;durP1;ratioP1;P1;durP2;ratioP2;P2;SDS_P1;SDS_P2;PMS_P1;PMS_P2;Temp;Humidity;BMP_temperature;BMP_pressure;BME280_temperature;BME280_humidity;BME280_pressure;Samples;Min_cycle;Max_cycle;Signal;HPM_P1;HPM_P2
2023/06/04 00:00:51;;;;;;;17.02;9.23;;;;;;;;;;5052984;28;20104;-61
2023/06/04 00:03:17;;;;;;;17.35;8.45;;;;;;;;;;5051868;28;20079;-59
2023/06/04 00:05:43;;;;;;;20.00;8.80;;;;;;;;;;5052239;28;20078;-60
2023/06/04 00:08:09;;;;;;;16.35;8.80;;;;;;;;;;5053071;28;20017;-57
2023/06/04 00:10:35;;;;;;;15.43;9.00;;;;;;;;;;5051832;28;20029;-60
2023/06/04 00:13:01;;;;;;;15.25;9.10;;;;;;;;;;5052483;28;20036;-60
2023/06/04 00:15:27;;;;;;;15.50;9.27;;;;;;;;;;5052002;28;20021;-61
2023/06/04 00:17:54;;;;;;;18.27;8.85;;;;;;;;;;5051740;28;20434;-62
2023/06/04 00:20:20;;;;;;;15.23;8.73;;;;;;;;;;5052595;28;20143;-62
2023/06/04 00:22:46;;;;;;;16.90;8.50;;;;;;;;;;5051276;28;20048;-61
2023/06/04 00:25:12;;;;;;;15.82;8.57;;;;;;;;;;5051948;28;20500;-61
2023/06/04 00:27:38;;;;;;;15.40;8.70;;;;;;;;;;5052502;28;20080;-60
2023/06/04 00:30:04;;;;;;;17.33;9.30;;;;;;;;;;5052775;28;20381;-59
2023/06/04 00:32:31;;;;;;;16.27;8.82;;;;;;;;;;5052513;28;20400;-60
2023/06/04 00:35:01;;;;;;;16.35;9.05;;;;;;;;;;5051743;28;20174;-61
2023/06/04 00:37:31;;;;;;;14.98;8.93;;;;;;;;;;5052532;28;20033;-61
2023/06/04 00:39:57;;;;;;;15.60;8.40;;;;;;;;;;5052422;28;20056;-62
2023/06/04 00:42:23;;;;;;;16.63;8.57;;;;;;;;;;5052187;28;20503;-61
2023/06/04 00:44:49;;;;;;;18.63;9.30;;;;;;;;;;5052772;28;20041;-61
2023/06/04 00:47:16;;;;;;;16.33;8.55;;;;;;;;;;5052041;28;20051;-61
2023/06/04 00:49:42;;;;;;;16.80;8.45;;;;;;;;;;5052153;28;20029;-61
2023/06/04 00:52:09;;;;;;;15.38;8.45;;;;;;;;;;5052317;28;20112;-61
2023/06/04 00:54:36;;;;;;;17.38;8.90;;;;;;;;;;5051213;28;20477;-60
2023/06/04 00:57:02;;;;;;;16.40;8.90;;;;;;;;;;5051776;28;20497;-62
2023/06/04 00:59:32;;;;;;;14.98;8.02;;;;;;;;;;5051090;28;20425;-60
2023/06/04 01:01:58;;;;;;;14.88;8.10;;;;;;;;;;5050580;28;20339;-62
2023/06/04 01:04:34;;;;;;;15.88;8.50;;;;;;;;;;5051051;28;20048;-60
2023/06/04 01:07:03;;;;;;;16.02;7.88;;;;;;;;;;5052055;28;20017;-61
2023/06/04 01:09:33;;;;;;;16.35;8.63;;;;;;;;;;5051853;28;20070;-62
2023/06/04 01:12:01;;;;;;;15.05;8.23;;;;;;;;;;5050490;28;20041;-57
2023/06/04 01:14:29;;;;;;;19.38;8.75;;;;;;;;;;5050894;28;20025;-61
2023/06/04 01:17:10;;;;;;;15.68;8.38;;;;;;;;;;5052845;28;20547;-60
2023/06/04 01:19:37;;;;;;;15.23;8.20;;;;;;;;;;5052568;28;20024;-61
2023/06/04 01:22:05;;;;;;;17.02;8.30;;;;;;;;;;5052182;28;20556;-62
2023/06/04 01:24:36;;;;;;;15.32;8.20;;;;;;;;;;5051470;28;20032;-58
2023/06/04 01:27:03;;;;;;;16.38;8.27;;;;;;;;;;5052300;28;20036;-59
2023/06/04 01:29:30;;;;;;;14.27;8.30;;;;;;;;;;5052039;28;20078;-62
2023/06/04 01:31:56;;;;;;;16.50;8.10;;;;;;;;;;5050388;28;20036;-61
2023/06/04 01:34:22;;;;;;;16.40;7.90;;;;;;;;;;5050661;28;20116;-60
2023/06/04 01:36:48;;;;;;;15.55;7.90;;;;;;;;;;5051519;28;20057;-60
2023/06/04 01:39:14;;;;;;;14.45;8.05;;;;;;;;;;5051804;28;20023;-57
2023/06/04 01:41:40;;;;;;;15.55;7.70;;;;;;;;;;5052004;28;20036;-58
2023/06/04 01:44:06;;;;;;;15.48;7.80;;;;;;;;;;5051108;28;20025;-61
2023/06/04 01:46:32;;;;;;;17.40;8.20;;;;;;;;;;5050542;28;20021;-60
2023/06/04 01:48:58;;;;;;;15.75;7.88;;;;;;;;;;5051412;28;20683;-60
2023/06/04 01:51:24;;;;;;;15.05;8.10;;;;;;;;;;5051109;28;20032;-60
2023/06/04 01:53:50;;;;;;;15.93;7.40;;;;;;;;;;5051268;28;20478;-59
2023/06/04 01:56:16;;;;;;;13.98;7.50;;;;;;;;;;5050610;28;20024;-59
2023/06/04 01:58:42;;;;;;;15.68;7.63;;;;;;;;;;5051191;28;20025;-60
2023/06/04 02:01:09;;;;;;;15.38;7.70;;;;;;;;;;5051380;28;20043;-61
2023/06/04 02:03:36;;;;;;;16.52;7.68;;;;;;;;;;5051051;28;20024;-60
2023/06/04 02:06:03;;;;;;;16.45;7.63;;;;;;;;;;5050520;28;20607;-59
2023/06/04 02:08:30;;;;;;;14.63;7.30;;;;;;;;;;5051172;28;20040;-59
2023/06/04 02:10:56;;;;;;;14.48;7.30;;;;;;;;;;5050292;28;20021;-58
2023/06/04 02:13:22;;;;;;;14.70;7.57;;;;;;;;;;5054804;28;20055;-59
2023/06/04 02:15:48;;;;;;;15.45;7.68;;;;;;;;;;5054114;28;20060;-57
2023/06/04 02:18:20;;;;;;;16.10;7.50;;;;;;;;;;5053462;28;20023;-60
2023/06/04 02:20:47;;;;;;;16.52;7.47;;;;;;;;;;5054792;28;20021;-60
2023/06/04 02:23:14;;;;;;;14.90;7.32;;;;;;;;;;5053208;28;20643;-57
2023/06/04 02:25:41;;;;;;;17.92;7.20;;;;;;;;;;5053896;28;20024;-60
2023/06/04 02:28:07;;;;;;;14.90;7.40;;;;;;;;;;5054425;28;20451;-60
2023/06/04 02:30:33;;;;;;;14.68;6.95;;;;;;;;;;5054613;28;20047;-59
2023/06/04 02:33:00;;;;;;;15.02;7.57;;;;;;;;;;5054345;28;20029;-59
2023/06/04 02:35:27;;;;;;;14.68;6.63;;;;;;;;;;5053761;28;20364;-60
2023/06/04 02:37:53;;;;;;;14.35;6.82;;;;;;;;;;5054371;28;20017;-60
2023/06/04 02:40:19;;;;;;;14.57;6.50;;;;;;;;;;5053109;28;20485;-58
2023/06/04 02:42:45;;;;;;;15.05;6.60;;;;;;;;;;5054158;28;20029;-59
2023/06/04 02:45:11;;;;;;;15.02;6.95;;;;;;;;;;5053578;28;20029;-59
2023/06/04 02:47:38;;;;;;;13.73;6.75;;;;;;;;;;5054256;28;20111;-58
2023/06/04 02:50:04;;;;;;;13.98;6.93;;;;;;;;;;5054283;28;20477;-60
2023/06/04 02:52:31;;;;;;;14.65;7.40;;;;;;;;;;5054004;28;20511;-57
2023/06/04 02:54:57;;;;;;;14.85;6.82;;;;;;;;;;5053308;28;20382;-60
2023/06/04 02:57:23;;;;;;;15.13;6.68;;;;;;;;;;5054093;28;20057;-59
2023/06/04 02:59:49;;;;;;;14.43;7.00;;;;;;;;;;5052721;28;20025;-60
2023/06/04 03:02:15;;;;;;;14.93;6.97;;;;;;;;;;5052841;28;20025;-60
2023/06/04 03:04:44;;;;;;;16.38;7.25;;;;;;;;;;5053051;28;20086;-60
2023/06/04 03:07:11;;;;;;;;;;;;;;;;;;5054175;28;20016;-60
2023/06/04 03:09:37;;;;;;;15.80;7.45;;;;;;;;;;5053863;28;19970;-60
2023/06/04 03:12:03;;;;;;;17.15;8.05;;;;;;;;;;5051557;28;20061;-60
2023/06/04 03:14:33;;;;;;;15.20;6.90;;;;;;;;;;5052769;28;20112;-60
2023/06/04 03:17:10;;;;;;;16.10;7.30;;;;;;;;;;5053520;28;20028;-60
2023/06/04 03:19:36;;;;;;;14.27;7.07;;;;;;;;;;5053634;28;20500;-60
2023/06/04 03:22:05;;;;;;;15.38;7.22;;;;;;;;;;5053456;28;20439;-60
2023/06/04 03:24:32;;;;;;;16.80;7.60;;;;;;;;;;5052132;28;20032;-59
2023/06/04 03:26:58;;;;;;;18.17;8.27;;;;;;;;;;5053505;28;20032;-60
2023/06/04 03:29:24;;;;;;;14.15;6.93;;;;;;;;;;5053438;28;20029;-60
2023/06/04 03:31:50;;;;;;;15.13;7.25;;;;;;;;;;5052917;28;20028;-58
2023/06/04 03:34:16;;;;;;;15.52;7.10;;;;;;;;;;5052165;28;20060;-60
2023/06/04 03:36:42;;;;;;;15.00;7.65;;;;;;;;;;5053183;28;20069;-61
2023/06/04 03:39:08;;;;;;;16.35;7.65;;;;;;;;;;5051775;28;20029;-60
2023/06/04 03:41:34;;;;;;;15.88;7.30;;;;;;;;;;5051587;28;20559;-62
2023/06/04 03:44:00;;;;;;;15.38;6.65;;;;;;;;;;5051685;28;20048;-61
2023/06/04 03:46:28;;;;;;;15.18;6.97;;;;;;;;;;5052190;28;20029;-53
2023/06/04 03:48:54;;;;;;;14.18;7.07;;;;;;;;;;5054214;28;20056;-57
2023/06/04 03:51:20;;;;;;;16.15;6.95;;;;;;;;;;5053204;28;20028;-58
2023/06/04 03:53:46;;;;;;;17.10;7.60;;;;;;;;;;5052757;28;20031;-59
2023/06/04 03:56:14;;;;;;;16.20;7.78;;;;;;;;;;5052260;28;20469;-58
2023/06/04 03:58:40;;;;;;;16.05;7.50;;;;;;;;;;5052529;28;20079;-57
2023/06/04 04:01:06;;;;;;;16.20;8.05;;;;;;;;;;5052866;28;20432;-61
2023/06/04 04:03:34;;;;;;;15.73;7.80;;;;;;;;;;5052306;28;20029;-61
2023/06/04 04:06:00;;;;;;;17.48;7.70;;;;;;;;;;5052108;28;20036;-61
2023/06/04 04:08:31;;;;;;;16.30;7.30;;;;;;;;;;5051483;28;20432;-61
2023/06/04 04:10:57;;;;;;;15.70;7.65;;;;;;;;;;5052849;28;20044;-61
2023/06/04 04:13:23;;;;;;;15.95;7.97;;;;;;;;;;5052468;28;20101;-59
2023/06/04 04:15:52;;;;;;;17.13;7.65;;;;;;;;;;5051842;28;20505;-60
2023/06/04 04:18:19;;;;;;;15.82;7.55;;;;;;;;;;5052581;28;20234;-60
2023/06/04 04:20:46;;;;;;;17.98;7.88;;;;;;;;;;5052562;28;20098;-61
2023/06/04 04:23:12;;;;;;;17.95;7.70;;;;;;;;;;5052443;28;20025;-60
2023/06/04 04:25:38;;;;;;;16.95;7.53;;;;;;;;;;5051619;28;20158;-60
2023/06/04 04:28:07;;;;;;;18.50;7.45;;;;;;;;;;5052335;28;20037;-60
2023/06/04 04:30:34;;;;;;;15.35;7.55;;;;;;;;;;5050957;28;20021;-60
2023/06/04 04:33:01;;;;;;;16.90;8.23;;;;;;;;;;5052028;28;20025;-61
2023/06/04 04:35:28;;;;;;;15.85;7.95;;;;;;;;;;5050563;28;20032;-62
2023/06/04 04:37:54;;;;;;;17.00;7.80;;;;;;;;;;5051749;28;20023;-57
2023/06/04 04:40:20;;;;;;;15.43;8.63;;;;;;;;;;5052112;28;20024;-60
2023/06/04 04:42:46;;;;;;;15.50;8.20;;;;;;;;;;5051888;28;20029;-61
2023/06/04 04:45:12;;;;;;;16.50;9.05;;;;;;;;;;5051125;28;20039;-62
2023/06/04 04:47:38;;;;;;;15.35;7.88;;;;;;;;;;5051959;28;20036;-60
2023/06/04 04:50:05;;;;;;;18.13;9.20;;;;;;;;;;5051920;28;20040;-60
2023/06/04 04:52:31;;;;;;;15.13;8.52;;;;;;;;;;5051745;28;20060;-61
2023/06/04 04:54:57;;;;;;;15.45;8.40;;;;;;;;;;5051242;28;20028;-60
2023/06/04 04:57:26;;;;;;;18.70;11.65;;;;;;;;;;5051925;28;20025;-61
2023/06/04 04:59:52;;;;;;;18.33;9.18;;;;;;;;;;5050612;28;20025;-61
2023/06/04 05:02:18;;;;;;;15.10;8.50;;;;;;;;;;5052047;28;20070;-60
2023/06/04 05:04:44;;;;;;;15.88;9.07;;;;;;;;;;5051006;28;20098;-61
2023/06/04 05:07:10;;;;;;;16.25;8.93;;;;;;;;;;5051877;28;20111;-61
2023/06/04 05:09:36;;;;;;;17.05;9.20;;;;;;;;;;5051779;28;20033;-61
2023/06/04 05:12:02;;;;;;;16.65;9.80;;;;;;;;;;5051687;28;20029;-61
2023/06/04 05:14:28;;;;;;;17.38;10.15;;;;;;;;;;5051043;28;20029;-61
2023/06/04 05:16:57;;;;;;;17.35;9.15;;;;;;;;;;5051808;28;20020;-60
2023/06/04 05:19:24;;;;;;;16.90;10.23;;;;;;;;;;5048143;28;20447;-60
2023/06/04 05:21:50;;;;;;;22.63;9.45;;;;;;;;;;5060150;28;20025;-60
2023/06/04 05:24:16;;;;;;;16.90;9.85;;;;;;;;;;5061616;28;20021;-56
2023/06/04 05:26:43;;;;;;;18.25;11.60;;;;;;;;;;5050131;28;20029;-60
2023/06/04 05:29:09;;;;;;;18.50;10.55;;;;;;;;;;5051237;28;20024;-58
2023/06/04 05:31:36;;;;;;;16.27;10.13;;;;;;;;;;5051266;28;20113;-59
2023/06/04 05:34:04;;;;;;;22.70;14.63;;;;;;;;;;5049528;28;20021;-60
2023/06/04 05:36:31;;;;;;;17.40;10.95;;;;;;;;;;5051143;28;20026;-58
2023/06/04 05:38:57;;;;;;;17.20;10.27;;;;;;;;;;5050154;28;20124;-59
2023/06/04 05:41:24;;;;;;;15.63;9.55;;;;;;;;;;5051223;28;20032;-59
2023/06/04 05:43:50;;;;;;;18.67;11.10;;;;;;;;;;5051006;28;20078;-59
2023/06/04 05:46:16;;;;;;;22.90;15.02;;;;;;;;;;5052135;28;20078;-55
2023/06/04 05:48:42;;;;;;;22.60;15.23;;;;;;;;;;5056184;28;20028;-58
2023/06/04 05:51:08;;;;;;;19.25;12.23;;;;;;;;;;5055633;28;20021;-56
2023/06/04 05:53:34;;;;;;;16.30;9.95;;;;;;;;;;5055077;28;20012;-59
2023/06/04 05:56:00;;;;;;;16.95;10.25;;;;;;;;;;5054163;28;20040;-60
2023/06/04 05:58:26;;;;;;;15.90;10.23;;;;;;;;;;5054995;28;20051;-60
2023/06/04 06:00:52;;;;;;;17.95;10.30;;;;;;;;;;5054905;28;20096;-58
2023/06/04 06:03:19;;;;;;;17.75;10.40;;;;;;;;;;5054880;28;20489;-60
2023/06/04 06:05:45;;;;;;;22.80;11.77;;;;;;;;;;5054343;28;20025;-60
2023/06/04 06:08:11;;;;;;;18.40;11.93;;;;;;;;;;5054918;28;20112;-60
2023/06/04 06:10:37;;;;;;;17.88;11.40;;;;;;;;;;5054779;28;20117;-57
2023/06/04 06:13:03;;;;;;;17.38;11.10;;;;;;;;;;5054638;28;20108;-60
2023/06/04 06:15:29;;;;;;;17.95;10.48;;;;;;;;;;5053958;28;20105;-61
2023/06/04 06:17:55;;;;;;;21.35;11.45;;;;;;;;;;5054718;28;20024;-60
2023/06/04 06:20:21;;;;;;;15.63;10.15;;;;;;;;;;5054773;28;20017;-60
2023/06/04 06:22:48;;;;;;;19.55;12.30;;;;;;;;;;5053430;28;20029;-60
2023/06/04 06:25:15;;;;;;;16.40;10.40;;;;;;;;;;5054041;28;20021;-61
2023/06/04 06:27:41;;;;;;;18.52;11.55;;;;;;;;;;5054615;28;20021;-60
2023/06/04 06:30:08;;;;;;;16.83;10.48;;;;;;;;;;5054484;28;20033;-60
2023/06/04 06:32:34;;;;;;;17.13;9.93;;;;;;;;;;5054273;28;20401;-60
2023/06/04 06:35:00;;;;;;;15.82;10.63;;;;;;;;;;5052294;28;20028;-55
2023/06/04 06:37:26;;;;;;;18.38;11.68;;;;;;;;;;5054340;28;20017;-60
2023/06/04 06:39:52;;;;;;;17.08;11.30;;;;;;;;;;5054407;28;20029;-60
2023/06/04 06:42:19;;;;;;;23.38;16.33;;;;;;;;;;5052942;28;20029;-58
2023/06/04 06:44:45;;;;;;;19.98;13.43;;;;;;;;;;5070780;22;20049;-61
2023/06/04 06:47:14;;;;;;;16.33;10.65;;;;;;;;;;5040407;28;20021;-63
2023/06/04 06:49:41;;;;;;;15.88;10.27;;;;;;;;;;5047168;28;20031;-63
2023/06/04 06:52:07;;;;;;;20.15;12.40;;;;;;;;;;5046869;28;20037;-63
2023/06/04 06:54:33;;;;;;;16.27;10.27;;;;;;;;;;5030766;28;20365;-64
2023/06/04 06:56:59;;;;;;;18.55;10.93;;;;;;;;;;5020716;28;20022;-64
2023/06/04 06:59:25;;;;;;;16.23;10.52;;;;;;;;;;5027761;28;20028;-62
2023/06/04 07:01:51;;;;;;;18.05;11.77;;;;;;;;;;5039465;28;20028;-63
2023/06/04 07:04:17;;;;;;;17.40;12.50;;;;;;;;;;5038384;28;20045;-64
2023/06/04 07:06:44;;;;;;;16.23;10.88;;;;;;;;;;5039302;28;20028;-64
2023/06/04 07:09:10;;;;;;;16.85;10.40;;;;;;;;;;5030145;28;20072;-63
2023/06/04 07:11:36;;;;;;;16.65;10.23;;;;;;;;;;5024803;28;20088;-54
2023/06/04 07:14:02;;;;;;;16.90;10.63;;;;;;;;;;5031831;28;20033;-56
2023/06/04 07:16:28;;;;;;;19.20;11.07;;;;;;;;;;5032537;28;20017;-56
2023/06/04 07:18:54;;;;;;;19.15;10.80;;;;;;;;;;5032776;28;20144;-59
2023/06/04 07:21:23;;;;;;;18.80;13.20;;;;;;;;;;5015290;28;20502;-58
2023/06/04 07:23:50;;;;;;;15.77;10.32;;;;;;;;;;4993174;28;20105;-58
2023/06/04 07:26:17;;;;;;;17.10;10.43;;;;;;;;;;4992438;28;20058;-55
2023/06/04 07:28:43;;;;;;;17.98;10.50;;;;;;;;;;4992835;28;20161;-56
2023/06/04 07:31:10;;;;;;;16.52;10.27;;;;;;;;;;4992685;28;20034;-55
2023/06/04 07:33:43;;;;;;;16.02;10.32;;;;;;;;;;4991228;28;20034;-55
2023/06/04 07:36:10;;;;;;;16.90;10.60;;;;;;;;;;4991891;28;20153;-57
2023/06/04 07:38:36;;;;;;;15.50;10.40;;;;;;;;;;4992726;28;20034;-55
2023/06/04 07:41:02;;;;;;;16.83;10.50;;;;;;;;;;4991404;28;20023;-52
2023/06/04 07:43:28;;;;;;;16.67;10.40;;;;;;;;;;4992073;28;20022;-55
2023/06/04 07:45:54;;;;;;;16.75;11.10;;;;;;;;;;4991751;28;20080;-54
2023/06/04 07:48:20;;;;;;;16.08;10.85;;;;;;;;;;4991007;28;20030;-56
2023/06/04 07:50:46;;;;;;;16.92;11.35;;;;;;;;;;4992355;28;20018;-53
2023/06/04 07:53:12;;;;;;;17.77;11.60;;;;;;;;;;4990907;28;20022;-57
2023/06/04 07:55:38;;;;;;;17.10;10.52;;;;;;;;;;4991403;28;20110;-56
2023/06/04 07:58:04;;;;;;;16.30;10.90;;;;;;;;;;4992523;28;20034;-57
2023/06/04 08:00:31;;;;;;;15.73;10.18;;;;;;;;;;4992084;28;20031;-55
2023/06/04 08:02:57;;;;;;;16.38;10.50;;;;;;;;;;4990742;28;20026;-51
2023/06/04 08:05:23;;;;;;;16.10;10.90;;;;;;;;;;4991389;28;20046;-55
2023/06/04 08:07:49;;;;;;;19.70;10.93;;;;;;;;;;4990706;28;20458;-54
2023/06/04 08:10:15;;;;;;;15.45;10.88;;;;;;;;;;4991803;28;20027;-57
2023/06/04 08:12:41;;;;;;;17.50;10.90;;;;;;;;;;5020212;28;20033;-57
2023/06/04 08:15:07;;;;;;;16.05;10.38;;;;;;;;;;5024510;28;20498;-55
2023/06/04 08:17:35;;;;;;;16.00;10.40;;;;;;;;;;5027426;28;20493;-56
2023/06/04 08:20:01;;;;;;;16.15;10.60;;;;;;;;;;5031240;28;20034;-54
2023/06/04 08:22:29;;;;;;;18.45;10.93;;;;;;;;;;5015708;28;20486;-54
2023/06/04 08:24:55;;;;;;;15.52;10.57;;;;;;;;;;5010831;28;20038;-58
2023/06/04 08:27:21;;;;;;;17.10;10.73;;;;;;;;;;5011249;28;20533;-55
2023/06/04 08:29:47;;;;;;;15.45;10.73;;;;;;;;;;5010030;28;20678;-59
2023/06/04 08:32:13;;;;;;;15.75;10.68;;;;;;;;;;5010918;28;20026;-58
2023/06/04 08:34:40;;;;;;;16.48;11.02;;;;;;;;;;5010511;28;20026;-55
2023/06/04 08:37:06;;;;;;;16.92;11.18;;;;;;;;;;5011230;28;20441;-58
2023/06/04 08:39:33;;;;;;;15.30;11.35;;;;;;;;;;5011170;28;20014;-60
2023/06/04 08:42:04;;;;;;;16.25;11.18;;;;;;;;;;5009941;28;20022;-60
2023/06/04 08:44:31;;;;;;;17.98;10.90;;;;;;;;;;5026320;28;20044;-58
2023/06/04 08:47:02;;;;;;;15.82;11.18;;;;;;;;;;5025330;28;20092;-59
2023/06/04 08:49:30;;;;;;;17.50;11.57;;;;;;;;;;5025293;28;20021;-61
2023/06/04 08:51:56;;;;;;;17.60;11.60;;;;;;;;;;5029880;28;20029;-59
2023/06/04 08:54:22;;;;;;;16.75;11.05;;;;;;;;;;5029228;28;20033;-58
2023/06/04 08:56:51;;;;;;;19.00;11.57;;;;;;;;;;5030247;28;20105;-59
2023/06/04 08:59:17;;;;;;;14.98;11.05;;;;;;;;;;5030278;28;20501;-59
2023/06/04 09:01:44;;;;;;;16.35;11.30;;;;;;;;;;5028948;28;20026;-56
2023/06/04 09:04:12;;;;;;;15.77;11.55;;;;;;;;;;5027957;28;20033;-57
2023/06/04 09:06:40;;;;;;;18.35;11.18;;;;;;;;;;5030352;28;20357;-60
2023/06/04 09:09:09;;;;;;;16.20;11.35;;;;;;;;;;5030635;28;20104;-59
2023/06/04 09:11:54;;;;;;;16.10;11.10;;;;;;;;;;5030232;28;20385;-59
2023/06/04 09:14:20;;;;;;;16.05;10.80;;;;;;;;;;5029164;28;20036;-59
2023/06/04 09:16:47;;;;;;;15.50;11.00;;;;;;;;;;5030036;28;20029;-60
2023/06/04 09:19:13;;;;;;;17.98;11.50;;;;;;;;;;5029987;28;20343;-60
2023/06/04 09:21:56;;;;;;;16.10;10.75;;;;;;;;;;5020575;28;20026;-59
2023/06/04 09:24:22;;;;;;;16.27;11.32;;;;;;;;;;5008712;28;20036;-59
2023/06/04 09:26:49;;;;;;;16.70;11.30;;;;;;;;;;5008660;28;20442;-59
2023/06/04 09:29:15;;;;;;;16.85;11.43;;;;;;;;;;5008473;28;20209;-58
2023/06/04 09:31:42;;;;;;;16.95;11.90;;;;;;;;;;5008475;28;20033;-57
2023/06/04 09:34:08;;;;;;;17.85;11.70;;;;;;;;;;5006518;28;20394;-58
2023/06/04 09:36:35;;;;;;;15.18;11.15;;;;;;;;;;5008382;28;20100;-58
2023/06/04 09:39:02;;;;;;;17.05;11.00;;;;;;;;;;5008380;28;20030;-60
2023/06/04 09:41:28;;;;;;;18.38;11.20;;;;;;;;;;5009347;28;20048;-59
2023/06/04 09:44:02;;;;;;;17.40;11.00;;;;;;;;;;5009701;28;20022;-57
2023/06/04 09:46:29;;;;;;;16.30;11.82;;;;;;;;;;5009889;28;20517;-57
2023/06/04 09:49:05;;;;;;;16.70;11.85;;;;;;;;;;5010011;28;20045;-59
2023/06/04 09:51:32;;;;;;;19.83;14.50;;;;;;;;;;5010098;28;20057;-60
2023/06/04 09:54:03;;;;;;;16.25;11.40;;;;;;;;;;5008231;28;20270;-59
2023/06/04 09:56:29;;;;;;;16.15;11.60;;;;;;;;;;5009984;28;20022;-60
2023/06/04 09:58:56;;;;;;;18.67;10.95;;;;;;;;;;5008862;28;20060;-59
2023/06/04 10:01:24;;;;;;;14.97;10.50;;;;;;;;;;5010520;28;20490;-59
2023/06/04 10:03:52;;;;;;;17.75;10.65;;;;;;;;;;5010405;28;20612;-60
2023/06/04 10:06:19;;;;;;;15.32;10.55;;;;;;;;;;5009918;28;20034;-56
2023/06/04 10:08:46;;;;;;;15.23;10.85;;;;;;;;;;5021155;28;20070;-57
2023/06/04 10:11:13;;;;;;;14.93;10.57;;;;;;;;;;5020383;28;20053;-57
2023/06/04 10:13:45;;;;;;;17.13;10.63;;;;;;;;;;4665971;28;10000230;-60
2023/06/04 10:16:13;;;;;;;16.15;10.57;;;;;;;;;;5006430;28;20296;-62
2023/06/04 10:18:39;;;;;;;16.53;10.97;;;;;;;;;;5016553;28;20144;-61
2023/06/04 10:21:06;;;;;;;17.55;11.00;;;;;;;;;;5022301;28;20021;-60
2023/06/04 10:23:32;;;;;;;15.85;10.95;;;;;;;;;;5018270;28;20382;-62
2023/06/04 10:25:59;;;;;;;16.70;10.88;;;;;;;;;;5013217;28;20036;-60
2023/06/04 10:28:26;;;;;;;17.63;11.43;;;;;;;;;;5014490;28;20025;-61
2023/06/04 10:30:52;;;;;;;16.00;11.02;;;;;;;;;;5011930;28;20018;-62
2023/06/04 10:33:20;;;;;;;17.02;11.00;;;;;;;;;;5008387;28;20033;-61
2023/06/04 10:35:46;;;;;;;17.63;10.82;;;;;;;;;;5008969;28;20026;-61
2023/06/04 10:38:21;;;;;;;16.65;11.20;;;;;;;;;;5009637;28;20037;-61
2023/06/04 10:40:47;;;;;;;17.30;11.13;;;;;;;;;;5008865;28;20103;-61
2023/06/04 10:43:15;;;;;;;16.65;12.20;;;;;;;;;;5003787;28;20082;-61
2023/06/04 10:45:41;;;;;;;17.38;11.48;;;;;;;;;;5009122;28;20061;-62
2023/06/04 10:48:08;;;;;;;16.13;10.65;;;;;;;;;;5009689;28;20026;-60
2023/06/04 10:50:35;;;;;;;14.95;10.52;;;;;;;;;;5010576;28;20034;-62
2023/06/04 10:53:05;;;;;;;18.55;11.75;;;;;;;;;;5011914;28;20128;-59
2023/06/04 10:55:31;;;;;;;15.20;10.88;;;;;;;;;;5011971;28;20101;-61
2023/06/04 10:58:01;;;;;;;16.65;11.00;;;;;;;;;;5012603;28;20024;-59
2023/06/04 11:00:40;;;;;;;15.77;11.07;;;;;;;;;;5001395;28;20037;-60
2023/06/04 11:03:07;;;;;;;16.52;10.73;;;;;;;;;;4991743;28;20467;-56
2023/06/04 11:05:36;;;;;;;15.00;10.90;;;;;;;;;;4992209;28;20093;-60
2023/06/04 11:08:02;;;;;;;15.15;10.90;;;;;;;;;;4992987;28;20081;-57
2023/06/04 11:10:54;;;;;;;16.33;11.32;;;;;;;;;;4993004;28;20472;-60
2023/06/04 11:13:25;;;;;;;16.08;11.63;;;;;;;;;;4990227;28;20061;-56
2023/06/04 11:15:51;;;;;;;16.48;11.30;;;;;;;;;;4998640;28;20376;-61
2023/06/04 11:18:18;;;;;;;15.15;11.40;;;;;;;;;;5012148;28;20105;-60
2023/06/04 11:20:47;;;;;;;15.60;11.55;;;;;;;;;;5012277;28;20053;-61
2023/06/04 11:23:14;;;;;;;16.63;11.32;;;;;;;;;;5012419;28;20080;-61
2023/06/04 11:25:42;;;;;;;16.33;11.52;;;;;;;;;;5012046;28;20030;-61
2023/06/04 11:28:08;;;;;;;15.48;11.57;;;;;;;;;;5012439;28;20339;-60
2023/06/04 11:30:34;;;;;;;16.17;11.38;;;;;;;;;;5011622;28;20037;-60
2023/06/04 11:33:05;;;;;;;16.05;11.20;;;;;;;;;;5011552;28;20037;-60
2023/06/04 11:35:32;;;;;;;15.43;11.55;;;;;;;;;;5010922;28;20036;-61
2023/06/04 11:37:58;;;;;;;15.90;11.60;;;;;;;;;;5011913;28;20022;-61
2023/06/04 11:40:26;;;;;;;15.57;11.60;;;;;;;;;;5012219;28;20053;-62
2023/06/04 11:42:52;;;;;;;15.38;11.52;;;;;;;;;;5013952;28;20017;-62
2023/06/04 11:45:19;;;;;;;16.08;11.90;;;;;;;;;;5019338;28;20038;-62
2023/06/04 11:47:47;;;;;;;20.77;12.05;;;;;;;;;;5030727;28;20053;-62
2023/06/04 11:50:13;;;;;;;15.80;12.00;;;;;;;;;;5030165;28;20021;-62
2023/06/04 11:52:39;;;;;;;15.73;12.07;;;;;;;;;;5031243;28;20059;-61
2023/06/04 11:55:08;;;;;;;16.73;12.15;;;;;;;;;;5013583;28;20022;-60
2023/06/04 11:57:35;;;;;;;19.33;12.13;;;;;;;;;;5015744;28;20014;-62
2023/06/04 12:00:01;;;;;;;18.80;12.30;;;;;;;;;;5031085;28;20505;-60
2023/06/04 12:02:27;;;;;;;16.70;12.07;;;;;;;;;;5026847;28;20079;-61
2023/06/04 12:04:53;;;;;;;17.70;12.90;;;;;;;;;;5026331;28;20033;-61
2023/06/04 12:07:25;;;;;;;16.23;13.00;;;;;;;;;;5022662;28;20037;-61
2023/06/04 12:09:51;;;;;;;15.98;12.20;;;;;;;;;;5023147;28;20053;-62
2023/06/04 12:12:23;;;;;;;15.90;12.20;;;;;;;;;;5010876;28;20026;-59
2023/06/04 12:14:56;;;;;;;15.63;12.15;;;;;;;;;;5010803;28;20030;-62
2023/06/04 12:17:22;;;;;;;19.38;11.93;;;;;;;;;;5011557;28;20059;-62
2023/06/04 12:19:49;;;;;;;16.60;11.63;;;;;;;;;;5011409;28;20119;-63
2023/06/04 12:22:15;;;;;;;15.57;11.82;;;;;;;;;;5011370;28;20390;-63
2023/06/04 12:25:11;;;;;;;15.43;11.95;;;;;;;;;;5010193;28;20025;-62
2023/06/04 12:27:48;;;;;;;15.93;12.10;;;;;;;;;;4998541;28;20036;-61
2023/06/04 12:30:15;;;;;;;16.38;11.43;;;;;;;;;;5011280;28;20072;-63
2023/06/04 12:32:45;;;;;;;15.38;11.70;;;;;;;;;;5010915;28;20026;-62
2023/06/04 12:35:11;;;;;;;17.40;11.60;;;;;;;;;;4993954;28;20027;-62
2023/06/04 12:37:37;;;;;;;15.65;11.70;;;;;;;;;;4991531;28;20130;-62
2023/06/04 12:40:06;;;;;;;16.60;11.90;;;;;;;;;;4991207;28;20018;-63
2023/06/04 12:42:32;;;;;;;17.98;12.20;;;;;;;;;;4991413;28;20050;-62
2023/06/04 12:44:58;;;;;;;15.48;11.77;;;;;;;;;;5053898;22;20574;-59
2023/06/04 12:47:24;;;;;;;16.88;12.07;;;;;;;;;;5071741;28;20024;-59
2023/06/04 12:49:52;;;;;;;16.52;11.60;;;;;;;;;;5071846;28;20361;-55
2023/06/04 12:52:18;;;;;;;15.40;11.93;;;;;;;;;;5070304;28;20124;-55
2023/06/04 12:54:44;;;;;;;16.67;12.00;;;;;;;;;;5062025;28;20060;-54
2023/06/04 12:57:10;;;;;;;16.42;12.43;;;;;;;;;;5050919;28;20497;-57
2023/06/04 12:59:36;;;;;;;16.08;11.95;;;;;;;;;;5051553;28;20104;-56
2023/06/04 13:02:02;;;;;;;16.27;12.30;;;;;;;;;;4350031;28;9999945;-57
2023/06/04 13:04:28;;;;;;;16.83;12.70;;;;;;;;;;5047839;28;20424;-58
2023/06/04 13:06:58;;;;;;;15.60;12.50;;;;;;;;;;5047992;28;20029;-59
2023/06/04 13:09:25;;;;;;;17.25;12.50;;;;;;;;;;5030191;28;20430;-57
2023/06/04 13:11:51;;;;;;;16.50;12.18;;;;;;;;;;5049007;28;20032;-59
2023/06/04 13:14:17;;;;;;;16.85;12.10;;;;;;;;;;5047164;28;20040;-57
2023/06/04 13:16:45;;;;;;;16.67;12.30;;;;;;;;;;5048161;28;20540;-61
2023/06/04 13:19:11;;;;;;;16.33;12.75;;;;;;;;;;5048081;28;20616;-61
2023/06/04 13:21:37;;;;;;;15.45;12.15;;;;;;;;;;5047796;28;20510;-59
2023/06/04 13:24:03;;;;;;;15.77;12.10;;;;;;;;;;5046725;28;20120;-58
2023/06/04 13:26:29;;;;;;;16.40;12.50;;;;;;;;;;5047614;28;20017;-56
2023/06/04 13:28:55;;;;;;;17.05;12.27;;;;;;;;;;5046366;28;20039;-59
2023/06/04 13:31:21;;;;;;;15.70;12.13;;;;;;;;;;5047809;28;20031;-61
2023/06/04 13:33:47;;;;;;;15.50;12.25;;;;;;;;;;5042485;28;20029;-60
2023/06/04 13:36:13;;;;;;;17.08;12.05;;;;;;;;;;5009289;28;20127;-61
2023/06/04 13:38:41;;;;;;;18.10;12.65;;;;;;;;;;5013936;28;20053;-61
2023/06/04 13:41:07;;;;;;;15.15;12.07;;;;;;;;;;5047530;28;20013;-56
2023/06/04 13:43:33;;;;;;;15.63;12.48;;;;;;;;;;5046768;28;20067;-57
2023/06/04 13:45:59;;;;;;;16.63;12.50;;;;;;;;;;5028660;28;20534;-55
2023/06/04 13:48:25;;;;;;;16.45;12.88;;;;;;;;;;5046804;28;20029;-60
2023/06/04 13:50:51;;;;;;;15.40;12.20;;;;;;;;;;5047716;28;20036;-57
2023/06/04 13:53:17;;;;;;;16.45;12.10;;;;;;;;;;5029476;28;20115;-58
2023/06/04 13:55:43;;;;;;;18.02;12.43;;;;;;;;;;5046637;28;20029;-61
2023/06/04 13:58:09;;;;;;;15.48;12.00;;;;;;;;;;5029573;28;20455;-61
2023/06/04 14:00:35;;;;;;;17.40;12.43;;;;;;;;;;5046899;28;20027;-57
2023/06/04 14:03:01;;;;;;;15.52;12.38;;;;;;;;;;5047450;28;20059;-59
2023/06/04 14:05:27;;;;;;;15.63;12.40;;;;;;;;;;5046645;28;20032;-59
2023/06/04 14:07:54;;;;;;;17.08;12.50;;;;;;;;;;5048019;28;20043;-60
2023/06/04 14:10:20;;;;;;;15.63;12.27;;;;;;;;;;5051641;28;20516;-61
2023/06/04 14:12:46;;;;;;;16.85;12.73;;;;;;;;;;5050852;28;20036;-61
2023/06/04 14:15:14;;;;;;;15.40;11.90;;;;;;;;;;5050473;28;20024;-60
2023/06/04 14:17:41;;;;;;;16.73;12.40;;;;;;;;;;5051169;28;20031;-60
2023/06/04 14:20:07;;;;;;;16.05;12.57;;;;;;;;;;5051495;28;20029;-60